sensor_id;sensor_type;location;lat;lon;timestamp;pressure;altitude;pressure_sealevel;temperature;humidity
72959;BME280;60008;50.826;6.896;2022-11-15T00:00:53;100440.31;;;8.24;100.00
72959;BME280;60008;50.826;6.896;2022-11-15T00:03:38;100433.91;;;8.27;100.00
72959;BME280;60008;50.826;6.896;2022-11-15T00:06:23;100424.72;;;8.31;100.00
72959;BME280;60008;50.826;6.896;2022-11-15T00:09:08;100419.28;;;8.32;100.00
72959;BME280;60008;50.826;6.896;2022-11-15T00:11:54;100424.56;;;8.32;100.00
72959;BME280;60008;50.826;6.896;2022-11-15T00:14:39;100418.19;;;8.43;100.00
72959;BME280;60008;50.826;6.896;2022-11-15T00:17:24;100425.34;;;8.51;100.00
72959;BME280;60008;50.826;6.896;2022-11-15T00:20:09;100420.75;;;8.53;100.00
72959;BME280;60008;50.826;6.896;2022-11-15T00:22:54;100417.09;;;8.54;100.00
72959;BME280;60008;50.826;6.896;2022-11-15T00:25:39;100428.50;;;8.54;100.00
72959;BME280;60008;50.826;6.896;2022-11-15T00:28:25;100427.00;;;8.52;100.00
72959;BME280;60008;50.826;6.896;2022-11-15T00:31:14;100424.53;;;8.50;100.00
72959;BME280;60008;50.826;6.896;2022-11-15T00:33:59;100420.81;;;8.61;100.00
72959;BME280;60008;50.826;6.896;2022-11-15T00:36:44;100421.25;;;8.56;100.00
72959;BME280;60008;50.826;6.896;2022-11-15T00:39:29;100426.16;;;8.51;100.00
72959;BME280;60008;50.826;6.896;2022-11-15T00:42:14;100422.56;;;8.52;100.00
72959;BME280;60008;50.826;6.896;2022-11-15T00:44:59;100413.78;;;8.52;100.00
72959;BME280;60008;50.826;6.896;2022-11-15T00:47:45;100404.84;;;8.45;100.00
72959;BME280;60008;50.826;6.896;2022-11-15T00:50:31;100411.88;;;8.36;100.00
72959;BME280;60008;50.826;6.896;2022-11-15T00:53:16;100411.88;;;8.36;100.00
72959;BME280;60008;50.826;6.896;2022-11-15T00:56:02;100415.13;;;8.30;100.00
72959;BME280;60008;50.826;6.896;2022-11-15T00:58:47;100414.91;;;8.23;100.00
72959;BME280;60008;50.826;6.896;2022-11-15T01:01:32;100416.28;;;8.27;100.00
72959;BME280;60008;50.826;6.896;2022-11-15T01:04:17;100412.50;;;8.30;100.00
72959;BME280;60008;50.826;6.896;2022-11-15T01:07:02;100408.09;;;8.38;100.00
72959;BME280;60008;50.826;6.896;2022-11-15T01:09:47;100405.50;;;8.47;100.00
72959;BME280;60008;50.826;6.896;2022-11-15T01:12:32;100410.94;;;8.71;100.00
72959;BME280;60008;50.826;6.896;2022-11-15T01:15:17;100410.63;;;8.74;100.00
72959;BME280;60008;50.826;6.896;2022-11-15T01:18:02;100414.25;;;8.73;100.00
72959;BME280;60008;50.826;6.896;2022-11-15T01:20:48;100412.13;;;8.76;100.00
72959;BME280;60008;50.826;6.896;2022-11-15T01:23:33;100413.19;;;8.91;100.00
72959;BME280;60008;50.826;6.896;2022-11-15T01:26:19;100404.38;;;9.17;100.00
72959;BME280;60008;50.826;6.896;2022-11-15T01:29:03;100397.50;;;9.32;100.00
72959;BME280;60008;50.826;6.896;2022-11-15T01:31:49;100396.75;;;9.06;100.00
72959;BME280;60008;50.826;6.896;2022-11-15T01:34:34;100394.19;;;9.38;100.00
72959;BME280;60008;50.826;6.896;2022-11-15T01:37:19;100392.28;;;9.56;100.00
72959;BME280;60008;50.826;6.896;2022-11-15T01:40:04;100395.59;;;9.58;100.00
72959;BME280;60008;50.826;6.896;2022-11-15T01:42:49;100382.47;;;9.48;100.00
72959;BME280;60008;50.826;6.896;2022-11-15T01:45:35;100384.00;;;9.43;100.00
72959;BME280;60008;50.826;6.896;2022-11-15T01:48:20;100373.34;;;9.35;100.00
72959;BME280;60008;50.826;6.896;2022-11-15T01:51:09;100374.34;;;9.26;100.00
72959;BME280;60008;50.826;6.896;2022-11-15T01:53:59;100374.97;;;9.20;100.00
72959;BME280;60008;50.826;6.896;2022-11-15T01:56:50;100371.47;;;9.11;100.00
72959;BME280;60008;50.826;6.896;2022-11-15T01:59:38;100368.78;;;8.95;100.00
72959;BME280;60008;50.826;6.896;2022-11-15T02:02:25;100366.97;;;8.95;100.00
72959;BME280;60008;50.826;6.896;2022-11-15T02:05:10;100361.66;;;8.87;100.00
72959;BME280;60008;50.826;6.896;2022-11-15T02:07:56;100371.81;;;8.66;100.00
72959;BME280;60008;50.826;6.896;2022-11-15T02:10:41;100367.31;;;8.59;100.00
72959;BME280;60008;50.826;6.896;2022-11-15T02:13:26;100364.00;;;8.98;100.00
72959;BME280;60008;50.826;6.896;2022-11-15T02:16:24;100367.88;;;9.20;100.00
72959;BME280;60008;50.826;6.896;2022-11-15T02:19:32;100355.78;;;9.10;100.00
72959;BME280;60008;50.826;6.896;2022-11-15T02:27:56;100347.47;;;10.35;100.00
72959;BME280;60008;50.826;6.896;2022-11-15T02:31:04;100346.81;;;10.17;100.00
72959;BME280;60008;50.826;6.896;2022-11-15T02:34:25;100348.63;;;10.00;100.00
72959;BME280;60008;50.826;6.896;2022-11-15T02:40:34;100352.75;;;9.95;100.00
72959;BME280;60008;50.826;6.896;2022-11-15T02:43:27;100347.13;;;9.98;100.00
72959;BME280;60008;50.826;6.896;2022-11-15T02:46:41;100338.88;;;10.01;100.00
72959;BME280;60008;50.826;6.896;2022-11-15T02:49:50;100336.22;;;10.01;100.00
72959;BME280;60008;50.826;6.896;2022-11-15T02:52:36;100326.66;;;10.00;100.00
72959;BME280;60008;50.826;6.896;2022-11-15T02:55:30;100330.28;;;9.99;100.00
72959;BME280;60008;50.826;6.896;2022-11-15T03:01:31;100317.19;;;9.89;100.00
72959;BME280;60008;50.826;6.896;2022-11-15T03:07:19;100328.94;;;9.87;100.00
72959;BME280;60008;50.826;6.896;2022-11-15T03:13:30;100325.81;;;9.75;100.00
72959;BME280;60008;50.826;6.896;2022-11-15T03:16:26;100334.22;;;9.71;100.00
72959;BME280;60008;50.826;6.896;2022-11-15T03:19:26;100331.25;;;9.74;100.00
72959;BME280;60008;50.826;6.896;2022-11-15T03:22:16;100328.78;;;9.64;100.00
72959;BME280;60008;50.826;6.896;2022-11-15T03:25:06;100324.31;;;9.56;100.00
72959;BME280;60008;50.826;6.896;2022-11-15T03:27:55;100323.50;;;9.64;100.00
72959;BME280;60008;50.826;6.896;2022-11-15T03:30:41;100330.44;;;9.65;100.00
72959;BME280;60008;50.826;6.896;2022-11-15T03:33:29;100321.50;;;9.74;100.00
72959;BME280;60008;50.826;6.896;2022-11-15T03:36:16;100323.16;;;10.15;100.00
72959;BME280;60008;50.826;6.896;2022-11-15T03:39:04;100314.56;;;10.05;100.00
72959;BME280;60008;50.826;6.896;2022-11-15T03:45:12;100310.91;;;9.90;100.00
72959;BME280;60008;50.826;6.896;2022-11-15T03:48:07;100308.59;;;9.87;100.00
72959;BME280;60008;50.826;6.896;2022-11-15T03:50:55;100311.22;;;10.11;100.00
72959;BME280;60008;50.826;6.896;2022-11-15T03:53:40;100312.38;;;10.09;100.00
72959;BME280;60008;50.826;6.896;2022-11-15T03:56:25;100311.06;;;10.05;100.00
72959;BME280;60008;50.826;6.896;2022-11-15T03:59:11;100305.09;;;10.11;100.00
72959;BME280;60008;50.826;6.896;2022-11-15T04:01:56;100312.91;;;10.04;100.00
72959;BME280;60008;50.826;6.896;2022-11-15T04:04:41;100301.16;;;9.99;100.00
72959;BME280;60008;50.826;6.896;2022-11-15T04:07:26;100302.81;;;10.00;100.00
72959;BME280;60008;50.826;6.896;2022-11-15T04:10:12;100297.16;;;9.95;100.00
72959;BME280;60008;50.826;6.896;2022-11-15T04:12:57;100295.69;;;9.92;100.00
72959;BME280;60008;50.826;6.896;2022-11-15T04:15:42;100288.25;;;9.96;100.00
72959;BME280;60008;50.826;6.896;2022-11-15T04:18:28;100288.75;;;9.99;100.00
72959;BME280;60008;50.826;6.896;2022-11-15T04:21:13;100289.22;;;9.95;100.00
72959;BME280;60008;50.826;6.896;2022-11-15T04:24:17;100293.38;;;10.05;100.00
72959;BME280;60008;50.826;6.896;2022-11-15T04:27:02;100293.84;;;10.09;100.00
72959;BME280;60008;50.826;6.896;2022-11-15T04:29:47;100287.38;;;10.11;100.00
72959;BME280;60008;50.826;6.896;2022-11-15T04:32:32;100295.69;;;10.16;100.00
72959;BME280;60008;50.826;6.896;2022-11-15T04:35:17;100296.34;;;10.19;100.00
72959;BME280;60008;50.826;6.896;2022-11-15T04:38:04;100300.31;;;10.14;100.00
72959;BME280;60008;50.826;6.896;2022-11-15T04:40:49;100296.69;;;10.07;100.00
72959;BME280;60008;50.826;6.896;2022-11-15T04:43:34;100301.31;;;10.05;100.00
72959;BME280;60008;50.826;6.896;2022-11-15T04:46:20;100300.00;;;10.01;100.00
72959;BME280;60008;50.826;6.896;2022-11-15T04:49:05;100302.00;;;9.83;100.00
72959;BME280;60008;50.826;6.896;2022-11-15T04:51:50;100300.34;;;9.66;100.00
72959;BME280;60008;50.826;6.896;2022-11-15T04:54:35;100299.00;;;9.54;100.00
72959;BME280;60008;50.826;6.896;2022-11-15T04:57:20;100297.19;;;9.46;100.00
72959;BME280;60008;50.826;6.896;2022-11-15T05:00:07;100305.28;;;9.29;100.00
72959;BME280;60008;50.826;6.896;2022-11-15T05:02:53;100309.72;;;9.20;100.00
72959;BME280;60008;50.826;6.896;2022-11-15T05:05:57;100304.41;;;9.12;100.00
72959;BME280;60008;50.826;6.896;2022-11-15T05:08:43;100304.25;;;9.14;100.00
72959;BME280;60008;50.826;6.896;2022-11-15T05:11:28;100301.41;;;8.99;100.00
72959;BME280;60008;50.826;6.896;2022-11-15T05:14:14;100309.94;;;8.85;100.00
72959;BME280;60008;50.826;6.896;2022-11-15T05:16:58;100306.47;;;8.84;100.00
72959;BME280;60008;50.826;6.896;2022-11-15T05:19:44;100309.94;;;8.77;100.00
72959;BME280;60008;50.826;6.896;2022-11-15T05:22:29;100312.38;;;8.70;100.00
72959;BME280;60008;50.826;6.896;2022-11-15T05:25:15;100313.69;;;8.66;100.00
72959;BME280;60008;50.826;6.896;2022-11-15T05:28:00;100311.16;;;8.57;100.00
72959;BME280;60008;50.826;6.896;2022-11-15T05:30:45;100302.88;;;8.52;100.00
72959;BME280;60008;50.826;6.896;2022-11-15T05:33:31;100309.31;;;8.49;100.00
72959;BME280;60008;50.826;6.896;2022-11-15T05:36:27;100303.88;;;8.25;100.00
72959;BME280;60008;50.826;6.896;2022-11-15T05:39:13;100309.63;;;8.20;100.00
72959;BME280;60008;50.826;6.896;2022-11-15T05:42:08;100309.03;;;8.09;100.00
72959;BME280;60008;50.826;6.896;2022-11-15T05:44:54;100304.31;;;7.95;100.00
72959;BME280;60008;50.826;6.896;2022-11-15T05:47:40;100313.31;;;7.84;100.00
72959;BME280;60008;50.826;6.896;2022-11-15T05:50:25;100311.56;;;7.93;100.00
72959;BME280;60008;50.826;6.896;2022-11-15T05:53:13;100299.50;;;8.33;100.00
72959;BME280;60008;50.826;6.896;2022-11-15T05:55:59;100305.41;;;8.27;100.00
72959;BME280;60008;50.826;6.896;2022-11-15T05:58:44;100317.75;;;8.53;100.00
72959;BME280;60008;50.826;6.896;2022-11-15T06:01:29;100312.25;;;8.46;100.00
72959;BME280;60008;50.826;6.896;2022-11-15T06:04:15;100318.53;;;8.45;100.00
72959;BME280;60008;50.826;6.896;2022-11-15T06:06:59;100317.13;;;8.33;100.00
72959;BME280;60008;50.826;6.896;2022-11-15T06:09:44;100320.75;;;8.06;100.00
72959;BME280;60008;50.826;6.896;2022-11-15T06:12:30;100325.97;;;7.98;100.00
72959;BME280;60008;50.826;6.896;2022-11-15T06:15:15;100334.78;;;7.89;100.00
72959;BME280;60008;50.826;6.896;2022-11-15T06:18:00;100329.31;;;7.83;100.00
72959;BME280;60008;50.826;6.896;2022-11-15T06:20:45;100332.69;;;7.75;100.00
72959;BME280;60008;50.826;6.896;2022-11-15T06:23:34;100334.00;;;7.71;100.00
72959;BME280;60008;50.826;6.896;2022-11-15T06:26:19;100333.63;;;7.66;100.00
72959;BME280;60008;50.826;6.896;2022-11-15T06:29:04;100339.50;;;7.60;100.00
72959;BME280;60008;50.826;6.896;2022-11-15T06:31:49;100351.59;;;7.53;100.00
72959;BME280;60008;50.826;6.896;2022-11-15T06:34:34;100350.03;;;7.42;100.00
72959;BME280;60008;50.826;6.896;2022-11-15T06:37:20;100353.19;;;7.46;100.00
72959;BME280;60008;50.826;6.896;2022-11-15T06:40:06;100353.28;;;7.36;100.00
72959;BME280;60008;50.826;6.896;2022-11-15T06:42:57;100358.75;;;7.25;100.00
72959;BME280;60008;50.826;6.896;2022-11-15T06:45:42;100352.50;;;7.26;100.00
72959;BME280;60008;50.826;6.896;2022-11-15T06:48:28;100362.53;;;7.23;100.00
72959;BME280;60008;50.826;6.896;2022-11-15T06:51:14;100349.78;;;7.18;100.00
72959;BME280;60008;50.826;6.896;2022-11-15T06:53:59;100356.84;;;7.17;100.00
72959;BME280;60008;50.826;6.896;2022-11-15T06:56:44;100354.53;;;7.14;100.00
72959;BME280;60008;50.826;6.896;2022-11-15T06:59:29;100359.66;;;7.16;100.00
72959;BME280;60008;50.826;6.896;2022-11-15T07:02:14;100359.72;;;7.06;100.00
72959;BME280;60008;50.826;6.896;2022-11-15T07:04:59;100365.84;;;6.97;100.00
72959;BME280;60008;50.826;6.896;2022-11-15T07:07:50;100356.38;;;7.04;100.00
72959;BME280;60008;50.826;6.896;2022-11-15T07:10:36;100366.34;;;7.10;100.00
72959;BME280;60008;50.826;6.896;2022-11-15T07:13:24;100371.50;;;7.02;100.00
72959;BME280;60008;50.826;6.896;2022-11-15T07:16:10;100368.72;;;7.04;100.00
72959;BME280;60008;50.826;6.896;2022-11-15T07:18:56;100369.41;;;7.06;100.00
72959;BME280;60008;50.826;6.896;2022-11-15T07:21:41;100375.47;;;7.16;100.00
72959;BME280;60008;50.826;6.896;2022-11-15T07:24:26;100371.31;;;7.13;100.00
72959;BME280;60008;50.826;6.896;2022-11-15T07:27:11;100377.50;;;7.22;100.00
72959;BME280;60008;50.826;6.896;2022-11-15T07:29:56;100383.84;;;7.29;100.00
72959;BME280;60008;50.826;6.896;2022-11-15T07:32:41;100390.19;;;7.36;100.00
72959;BME280;60008;50.826;6.896;2022-11-15T07:35:28;100394.94;;;7.50;100.00
72959;BME280;60008;50.826;6.896;2022-11-15T07:38:13;100404.28;;;7.62;100.00
72959;BME280;60008;50.826;6.896;2022-11-15T07:41:01;100400.59;;;7.73;100.00
72959;BME280;60008;50.826;6.896;2022-11-15T07:43:47;100404.69;;;7.85;100.00
72959;BME280;60008;50.826;6.896;2022-11-15T07:46:32;100409.03;;;7.94;100.00
72959;BME280;60008;50.826;6.896;2022-11-15T07:49:16;100399.75;;;8.08;100.00
72959;BME280;60008;50.826;6.896;2022-11-15T07:52:01;100399.59;;;8.09;100.00
72959;BME280;60008;50.826;6.896;2022-11-15T07:54:46;100400.44;;;8.10;100.00
72959;BME280;60008;50.826;6.896;2022-11-15T07:57:32;100398.84;;;8.17;100.00
72959;BME280;60008;50.826;6.896;2022-11-15T08:00:17;100402.91;;;8.11;100.00
72959;BME280;60008;50.826;6.896;2022-11-15T08:05:51;100387.81;;;8.21;100.00
72959;BME280;60008;50.826;6.896;2022-11-15T08:08:37;100382.63;;;8.29;100.00
72959;BME280;60008;50.826;6.896;2022-11-15T08:11:22;100380.03;;;8.37;100.00
72959;BME280;60008;50.826;6.896;2022-11-15T08:14:07;100379.94;;;8.47;100.00
72959;BME280;60008;50.826;6.896;2022-11-15T08:16:54;100373.16;;;8.45;100.00
72959;BME280;60008;50.826;6.896;2022-11-15T08:19:39;100383.25;;;8.49;100.00
72959;BME280;60008;50.826;6.896;2022-11-15T08:22:24;100383.81;;;8.61;100.00
72959;BME280;60008;50.826;6.896;2022-11-15T08:25:09;100372.94;;;8.64;100.00
72959;BME280;60008;50.826;6.896;2022-11-15T08:27:56;100365.72;;;8.74;100.00
72959;BME280;60008;50.826;6.896;2022-11-15T08:30:42;100375.19;;;8.84;100.00
72959;BME280;60008;50.826;6.896;2022-11-15T08:33:28;100367.16;;;8.94;100.00
72959;BME280;60008;50.826;6.896;2022-11-15T08:36:15;100358.97;;;9.21;100.00
72959;BME280;60008;50.826;6.896;2022-11-15T08:39:00;100348.78;;;9.50;100.00
72959;BME280;60008;50.826;6.896;2022-11-15T08:41:45;100344.81;;;9.54;100.00
72959;BME280;60008;50.826;6.896;2022-11-15T08:44:30;100337.06;;;9.69;100.00
72959;BME280;60008;50.826;6.896;2022-11-15T08:47:15;100333.25;;;9.72;100.00
72959;BME280;60008;50.826;6.896;2022-11-15T08:50:01;100335.06;;;9.87;100.00
72959;BME280;60008;50.826;6.896;2022-11-15T08:52:46;100334.59;;;10.00;100.00
72959;BME280;60008;50.826;6.896;2022-11-15T08:55:32;100328.47;;;10.15;100.00
72959;BME280;60008;50.826;6.896;2022-11-15T08:58:20;100327.63;;;10.23;100.00
72959;BME280;60008;50.826;6.896;2022-11-15T09:01:05;100322.81;;;10.27;100.00
72959;BME280;60008;50.826;6.896;2022-11-15T09:03:50;100321.31;;;10.40;100.00
72959;BME280;60008;50.826;6.896;2022-11-15T09:06:35;100318.69;;;10.32;100.00
72959;BME280;60008;50.826;6.896;2022-11-15T09:09:27;100319.00;;;10.37;100.00
72959;BME280;60008;50.826;6.896;2022-11-15T09:12:12;100316.63;;;10.50;100.00
72959;BME280;60008;50.826;6.896;2022-11-15T09:14:57;100304.50;;;10.64;100.00
72959;BME280;60008;50.826;6.896;2022-11-15T09:17:42;100306.72;;;10.83;100.00
72959;BME280;60008;50.826;6.896;2022-11-15T09:20:28;100301.56;;;10.90;100.00
72959;BME280;60008;50.826;6.896;2022-11-15T09:23:13;100301.16;;;11.01;100.00
72959;BME280;60008;50.826;6.896;2022-11-15T09:26:02;100306.03;;;11.20;100.00
72959;BME280;60008;50.826;6.896;2022-11-15T09:28:47;100304.16;;;11.28;100.00
72959;BME280;60008;50.826;6.896;2022-11-15T09:31:32;100304.88;;;11.45;100.00
72959;BME280;60008;50.826;6.896;2022-11-15T09:34:17;100288.72;;;11.55;100.00
72959;BME280;60008;50.826;6.896;2022-11-15T09:37:03;100278.31;;;11.90;100.00
72959;BME280;60008;50.826;6.896;2022-11-15T09:39:48;100281.28;;;11.96;100.00
72959;BME280;60008;50.826;6.896;2022-11-15T09:42:45;100279.72;;;12.01;100.00
72959;BME280;60008;50.826;6.896;2022-11-15T09:45:57;100270.84;;;12.09;100.00
72959;BME280;60008;50.826;6.896;2022-11-15T09:48:49;100270.47;;;12.12;100.00
72959;BME280;60008;50.826;6.896;2022-11-15T09:51:39;100258.19;;;12.11;100.00
72959;BME280;60008;50.826;6.896;2022-11-15T09:54:44;100244.84;;;12.33;100.00
72959;BME280;60008;50.826;6.896;2022-11-15T09:58:16;100233.53;;;12.31;100.00
72959;BME280;60008;50.826;6.896;2022-11-15T10:00:51;100237.13;;;12.38;100.00
72959;BME280;60008;50.826;6.896;2022-11-15T10:03:40;100230.25;;;12.44;100.00
72959;BME280;60008;50.826;6.896;2022-11-15T10:06:26;100226.25;;;12.69;100.00
72959;BME280;60008;50.826;6.896;2022-11-15T10:09:18;100229.19;;;13.10;100.00
72959;BME280;60008;50.826;6.896;2022-11-15T10:12:08;100235.25;;;13.04;95.40
72959;BME280;60008;50.826;6.896;2022-11-15T10:15:06;100229.72;;;13.05;92.89
72959;BME280;60008;50.826;6.896;2022-11-15T10:18:06;100218.81;;;13.36;89.50
72959;BME280;60008;50.826;6.896;2022-11-15T10:20:57;100205.19;;;13.25;87.95
72959;BME280;60008;50.826;6.896;2022-11-15T10:23:42;100211.38;;;13.32;87.19
72959;BME280;60008;50.826;6.896;2022-11-15T10:26:28;100206.53;;;13.14;84.31
72959;BME280;60008;50.826;6.896;2022-11-15T10:29:23;100200.47;;;13.05;85.53
72959;BME280;60008;50.826;6.896;2022-11-15T10:32:13;100198.47;;;13.29;81.42
72959;BME280;60008;50.826;6.896;2022-11-15T10:34:58;100196.09;;;13.40;80.86
72959;BME280;60008;50.826;6.896;2022-11-15T10:37:43;100194.34;;;13.47;80.24
72959;BME280;60008;50.826;6.896;2022-11-15T10:40:28;100188.38;;;13.45;80.94
72959;BME280;60008;50.826;6.896;2022-11-15T10:43:18;100191.94;;;13.31;79.25
72959;BME280;60008;50.826;6.896;2022-11-15T10:46:23;100187.19;;;13.48;79.13
72959;BME280;60008;50.826;6.896;2022-11-15T10:49:31;100185.03;;;13.64;80.48
72959;BME280;60008;50.826;6.896;2022-11-15T10:52:19;100184.22;;;13.64;78.01
72959;BME280;60008;50.826;6.896;2022-11-15T10:55:29;100188.31;;;13.94;77.56
72959;BME280;60008;50.826;6.896;2022-11-15T10:58:36;100175.72;;;14.16;75.53
72959;BME280;60008;50.826;6.896;2022-11-15T11:01:27;100170.03;;;13.85;77.87
72959;BME280;60008;50.826;6.896;2022-11-15T11:04:16;100162.69;;;13.93;78.66
72959;BME280;60008;50.826;6.896;2022-11-15T11:07:01;100153.75;;;14.07;78.19
72959;BME280;60008;50.826;6.896;2022-11-15T11:09:57;100157.56;;;13.92;80.72
72959;BME280;60008;50.826;6.896;2022-11-15T11:12:42;100163.03;;;13.84;81.08
72959;BME280;60008;50.826;6.896;2022-11-15T11:15:27;100160.97;;;13.79;83.09
72959;BME280;60008;50.826;6.896;2022-11-15T11:22:11;100156.69;;;13.85;82.05
72959;BME280;60008;50.826;6.896;2022-11-15T11:34:23;100129.56;;;13.68;85.01
72959;BME280;60008;50.826;6.896;2022-11-15T11:37:23;100128.16;;;13.72;86.43
72959;BME280;60008;50.826;6.896;2022-11-15T11:43:34;100125.38;;;13.59;88.74
72959;BME280;60008;50.826;6.896;2022-11-15T11:49:24;100121.56;;;13.68;87.38
72959;BME280;60008;50.826;6.896;2022-11-15T11:52:41;100128.50;;;13.62;90.27
72959;BME280;60008;50.826;6.896;2022-11-15T11:55:33;100130.25;;;13.49;87.88
72959;BME280;60008;50.826;6.896;2022-11-15T11:58:43;100119.81;;;13.47;90.80
72959;BME280;60008;50.826;6.896;2022-11-15T12:01:37;100108.56;;;13.52;88.80
72959;BME280;60008;50.826;6.896;2022-11-15T12:04:36;100106.50;;;13.47;91.08
72959;BME280;60008;50.826;6.896;2022-11-15T12:07:32;100101.16;;;13.47;90.82
72959;BME280;60008;50.826;6.896;2022-11-15T12:10:29;100086.78;;;13.14;92.94
72959;BME280;60008;50.826;6.896;2022-11-15T12:13:21;100091.22;;;13.35;92.15
72959;BME280;60008;50.826;6.896;2022-11-15T12:16:17;100086.19;;;13.40;94.11
72959;BME280;60008;50.826;6.896;2022-11-15T12:19:04;100084.28;;;13.34;93.74
72959;BME280;60008;50.826;6.896;2022-11-15T12:22:01;100077.69;;;13.30;96.29
72959;BME280;60008;50.826;6.896;2022-11-15T12:28:46;100069.69;;;13.30;93.93
72959;BME280;60008;50.826;6.896;2022-11-15T12:31:53;100069.69;;;13.57;97.40
72959;BME280;60008;50.826;6.896;2022-11-15T12:34:43;100067.31;;;13.76;95.10
72959;BME280;60008;50.826;6.896;2022-11-15T12:40:26;100033.09;;;14.26;91.93
72959;BME280;60008;50.826;6.896;2022-11-15T12:46:02;100024.22;;;14.19;90.59
72959;BME280;60008;50.826;6.896;2022-11-15T12:49:00;100015.16;;;14.01;92.11
72959;BME280;60008;50.826;6.896;2022-11-15T13:03:18;100005.66;;;13.79;93.94
72959;BME280;60008;50.826;6.896;2022-11-15T13:06:05;99997.06;;;13.77;93.51
72959;BME280;60008;50.826;6.896;2022-11-15T13:08:50;99996.44;;;13.75;94.62
72959;BME280;60008;50.826;6.896;2022-11-15T13:11:48;99989.84;;;13.70;95.30
72959;BME280;60008;50.826;6.896;2022-11-15T13:17:25;99986.53;;;13.62;97.86
72959;BME280;60008;50.826;6.896;2022-11-15T13:23:02;99970.34;;;13.57;97.78
72959;BME280;60008;50.826;6.896;2022-11-15T13:26:06;99966.84;;;13.56;99.23
72959;BME280;60008;50.826;6.896;2022-11-15T13:28:53;99965.41;;;13.54;98.55
72959;BME280;60008;50.826;6.896;2022-11-15T13:31:43;99955.16;;;13.51;99.34
72959;BME280;60008;50.826;6.896;2022-11-15T13:34:30;99952.69;;;13.49;99.83
72959;BME280;60008;50.826;6.896;2022-11-15T13:37:36;99946.16;;;13.52;100.00
72959;BME280;60008;50.826;6.896;2022-11-15T13:40:24;99935.06;;;13.48;100.00
72959;BME280;60008;50.826;6.896;2022-11-15T13:43:26;99934.84;;;13.43;100.00
72959;BME280;60008;50.826;6.896;2022-11-15T13:46:17;99928.72;;;13.43;100.00
72959;BME280;60008;50.826;6.896;2022-11-15T13:49:12;99932.38;;;13.35;100.00
72959;BME280;60008;50.826;6.896;2022-11-15T13:51:59;99929.91;;;13.34;100.00
72959;BME280;60008;50.826;6.896;2022-11-15T13:54:53;99923.94;;;13.25;100.00
72959;BME280;60008;50.826;6.896;2022-11-15T13:57:44;99927.81;;;13.23;100.00
72959;BME280;60008;50.826;6.896;2022-11-15T14:00:42;99923.06;;;13.18;100.00
72959;BME280;60008;50.826;6.896;2022-11-15T14:03:31;99919.16;;;13.14;100.00
72959;BME280;60008;50.826;6.896;2022-11-15T14:06:18;99913.84;;;13.14;100.00
72959;BME280;60008;50.826;6.896;2022-11-15T14:11:56;99899.28;;;13.10;100.00
72959;BME280;60008;50.826;6.896;2022-11-15T14:14:45;99892.69;;;13.06;100.00
72959;BME280;60008;50.826;6.896;2022-11-15T14:17:36;99888.78;;;13.02;100.00
72959;BME280;60008;50.826;6.896;2022-11-15T14:23:24;99877.53;;;13.00;100.00
72959;BME280;60008;50.826;6.896;2022-11-15T14:26:28;99868.31;;;12.96;100.00
72959;BME280;60008;50.826;6.896;2022-11-15T14:29:27;99862.78;;;12.97;100.00
72959;BME280;60008;50.826;6.896;2022-11-15T14:32:20;99857.69;;;13.02;100.00
72959;BME280;60008;50.826;6.896;2022-11-15T14:35:14;99854.41;;;13.00;100.00
72959;BME280;60008;50.826;6.896;2022-11-15T14:37:59;99851.81;;;13.07;100.00
72959;BME280;60008;50.826;6.896;2022-11-15T14:40:44;99848.94;;;13.08;100.00
72959;BME280;60008;50.826;6.896;2022-11-15T14:43:30;99845.06;;;13.11;100.00
72959;BME280;60008;50.826;6.896;2022-11-15T14:46:15;99837.28;;;13.09;100.00
72959;BME280;60008;50.826;6.896;2022-11-15T14:49:00;99831.97;;;13.09;100.00
72959;BME280;60008;50.826;6.896;2022-11-15T14:51:45;99823.94;;;13.03;100.00
72959;BME280;60008;50.826;6.896;2022-11-15T14:54:30;99827.59;;;13.02;100.00
72959;BME280;60008;50.826;6.896;2022-11-15T14:57:15;99818.00;;;13.01;100.00
72959;BME280;60008;50.826;6.896;2022-11-15T15:00:00;99818.16;;;12.99;100.00
72959;BME280;60008;50.826;6.896;2022-11-15T15:02:46;99818.38;;;12.98;100.00
72959;BME280;60008;50.826;6.896;2022-11-15T15:08:20;99803.03;;;12.93;100.00
72959;BME280;60008;50.826;6.896;2022-11-15T15:11:29;99797.47;;;12.88;100.00
72959;BME280;60008;50.826;6.896;2022-11-15T15:14:14;99795.06;;;12.93;100.00
72959;BME280;60008;50.826;6.896;2022-11-15T15:16:59;99796.28;;;12.91;100.00
72959;BME280;60008;50.826;6.896;2022-11-15T15:19:44;99795.41;;;12.84;100.00
72959;BME280;60008;50.826;6.896;2022-11-15T15:22:30;99788.88;;;12.86;100.00
72959;BME280;60008;50.826;6.896;2022-11-15T15:25:27;99781.28;;;12.83;100.00
72959;BME280;60008;50.826;6.896;2022-11-15T15:28:13;99772.53;;;12.89;100.00
72959;BME280;60008;50.826;6.896;2022-11-15T15:30:58;99786.81;;;12.82;100.00
72959;BME280;60008;50.826;6.896;2022-11-15T15:33:43;99774.13;;;12.77;100.00
72959;BME280;60008;50.826;6.896;2022-11-15T15:36:29;99779.44;;;12.77;100.00
72959;BME280;60008;50.826;6.896;2022-11-15T15:39:14;99765.72;;;12.74;100.00
72959;BME280;60008;50.826;6.896;2022-11-15T15:41:59;99763.63;;;12.69;100.00
72959;BME280;60008;50.826;6.896;2022-11-15T15:44:44;99769.56;;;12.65;100.00
72959;BME280;60008;50.826;6.896;2022-11-15T15:47:29;99764.22;;;12.65;100.00
72959;BME280;60008;50.826;6.896;2022-11-15T15:50:20;99765.84;;;12.59;100.00
72959;BME280;60008;50.826;6.896;2022-11-15T15:53:06;99759.47;;;12.53;100.00
72959;BME280;60008;50.826;6.896;2022-11-15T15:55:52;99750.06;;;12.51;100.00
72959;BME280;60008;50.826;6.896;2022-11-15T15:58:38;99743.13;;;12.57;100.00